createdAt,value
2023-02-01T00:01:42.220Z,99507.88
2023-02-01T00:04:10.776Z,99514.25
2023-02-01T00:06:39.655Z,99519.77
2023-02-01T00:09:08.998Z,99526.95
2023-02-01T00:11:37.444Z,99522.91
2023-02-01T00:14:07.132Z,99513.90
2023-02-01T00:16:36.166Z,99510.92
2023-02-01T00:19:12.259Z,99518.19
2023-02-01T00:21:41.582Z,99524.08
2023-02-01T00:24:12.685Z,99528.44
2023-02-01T00:26:46.714Z,99523.95
2023-02-01T00:29:20.899Z,99526.88
2023-02-01T00:31:52.548Z,99531.27
2023-02-01T00:34:22.559Z,99538.98
2023-02-01T00:36:51.772Z,99538.96
2023-02-01T00:39:20.493Z,99545.80
2023-02-01T00:41:49.515Z,99552.73
2023-02-01T00:44:18.795Z,99550.35
2023-02-01T00:46:48.045Z,99540.92
2023-02-01T00:49:16.853Z,99540.52
2023-02-01T00:51:46.316Z,99537.13
2023-02-01T00:54:15.481Z,99539.06
2023-02-01T00:56:44.327Z,99537.17
2023-02-01T00:59:14.005Z,99539.41
2023-02-01T01:01:43.427Z,99538.91
2023-02-01T01:04:12.600Z,99542.92
2023-02-01T01:06:41.422Z,99546.14
2023-02-01T01:09:11.149Z,99545.23
2023-02-01T01:11:40.413Z,99540.65
2023-02-01T01:14:13.130Z,99545.08
2023-02-01T01:16:42.119Z,99539.34
2023-02-01T01:19:11.417Z,99537.52
2023-02-01T01:21:41.184Z,99536.42
2023-02-01T01:24:09.979Z,99518.03
2023-02-01T01:26:39.161Z,99506.89
2023-02-01T01:29:10.772Z,99499.70
2023-02-01T01:31:39.438Z,99497.10
2023-02-01T01:34:10.067Z,99499.11
2023-02-01T01:36:39.798Z,99499.22
2023-02-01T01:39:10.421Z,99510.21
2023-02-01T01:41:40.369Z,99517.77
2023-02-01T01:44:48.825Z,99513.65
2023-02-01T01:47:17.941Z,99508.31
2023-02-01T01:49:47.009Z,99508.11
2023-02-01T01:52:16.108Z,99500.39
2023-02-01T01:54:48.613Z,99500.73
2023-02-01T01:57:26.298Z,99501.23
2023-02-01T02:00:09.625Z,99503.17
2023-02-01T02:02:40.351Z,99498.45
2023-02-01T02:05:10.584Z,99501.58
2023-02-01T02:07:43.117Z,99505.06
2023-02-01T02:10:14.706Z,99500.25
2023-02-01T02:12:47.734Z,99494.77
2023-02-01T02:15:18.452Z,99492.77
2023-02-01T02:18:14.695Z,99488.18
2023-02-01T02:21:25.819Z,99486.81
2023-02-01T02:24:06.836Z,99481.23
2023-02-01T02:27:01.312Z,99473.40
2023-02-01T02:29:41.084Z,99475.95
2023-02-01T02:32:15.458Z,99474.73
2023-02-01T02:34:50.822Z,99471.73
2023-02-01T02:37:31.763Z,99469.61
2023-02-01T02:40:29.508Z,99462.88
2023-02-01T02:43:34.869Z,99458.53
2023-02-01T02:46:41.816Z,99454.79
2023-02-01T02:49:16.741Z,99451.35
2023-02-01T02:52:16.475Z,99450.68
2023-02-01T02:54:49.002Z,99443.17
2023-02-01T02:57:45.989Z,99441.64
2023-02-01T03:00:37.561Z,99446.36
2023-02-01T03:03:25.752Z,99449.73
2023-02-01T03:05:54.587Z,99446.57
2023-02-01T03:08:26.839Z,99443.38
2023-02-01T03:11:07.373Z,99451.35
2023-02-01T03:13:54.060Z,99457.67
2023-02-01T03:16:42.970Z,99457.70
2023-02-01T03:19:25.206Z,99460.90
2023-02-01T03:22:05.718Z,99467.94
2023-02-01T03:24:40.444Z,99474.19
2023-02-01T03:27:20.916Z,99469.27
2023-02-01T03:29:55.582Z,99463.47
2023-02-01T03:32:24.799Z,99466.01
2023-02-01T03:34:55.024Z,99461.27
2023-02-01T03:37:29.816Z,99458.34
2023-02-01T03:40:07.058Z,99459.05
2023-02-01T03:42:40.848Z,99473.98
2023-02-01T03:45:19.309Z,99477.21
2023-02-01T03:47:51.702Z,99483.21
2023-02-01T03:50:26.838Z,99486.63
2023-02-01T03:52:58.426Z,99482.12
2023-02-01T03:55:29.719Z,99486.66
2023-02-01T03:58:30.794Z,99496.44
2023-02-01T04:01:01.781Z,99489.54
2023-02-01T04:03:32.039Z,99489.73
2023-02-01T04:06:01.123Z,99494.09
2023-02-01T04:08:30.635Z,99498.12
2023-02-01T04:10:59.521Z,99491.48
2023-02-01T04:13:29.824Z,99493.33
2023-02-01T04:15:59.408Z,99498.81
2023-02-01T04:18:28.735Z,99497.54
2023-02-01T04:20:58.094Z,99494.45
2023-02-01T04:23:27.174Z,99489.71
2023-02-01T04:26:01.098Z,99485.79
2023-02-01T04:28:30.137Z,99487.95
2023-02-01T04:30:59.248Z,99489.05
2023-02-01T04:33:28.358Z,99490.23
2023-02-01T04:35:57.357Z,99496.89
2023-02-01T04:38:26.110Z,99499.27
2023-02-01T04:40:54.727Z,99498.25
2023-02-01T04:43:23.919Z,99497.41
2023-02-01T04:45:53.725Z,99496.86
2023-02-01T04:48:24.995Z,99500.60
2023-02-01T04:50:53.794Z,99502.50
2023-02-01T04:53:22.951Z,99504.42
2023-02-01T04:55:52.344Z,99506.54
2023-02-01T04:58:21.308Z,99506.90
2023-02-01T05:00:50.809Z,99505.48
2023-02-01T05:03:19.994Z,99509.89
2023-02-01T05:05:50.239Z,99508.16
2023-02-01T05:08:19.012Z,99505.86
2023-02-01T05:10:48.075Z,99507.55
2023-02-01T05:13:35.798Z,99508.21
2023-02-01T05:16:04.875Z,99507.25
2023-02-01T05:18:33.824Z,99508.65
2023-02-01T05:21:03.387Z,99509.22
2023-02-01T05:23:32.565Z,99513.02
2023-02-01T05:26:03.021Z,99514.00
2023-02-01T05:28:31.956Z,99512.21
2023-02-01T05:31:01.062Z,99511.34
2023-02-01T05:33:30.523Z,99512.41
2023-02-01T05:36:00.382Z,99509.04
2023-02-01T05:38:31.157Z,99512.09
2023-02-01T05:41:00.415Z,99517.73
2023-02-01T05:43:29.646Z,99515.95
2023-02-01T05:45:58.719Z,99508.31
2023-02-01T05:48:27.890Z,99512.44
2023-02-01T05:50:56.691Z,99513.46
2023-02-01T05:53:25.775Z,99512.77
2023-02-01T05:55:55.123Z,99515.35
2023-02-01T05:58:24.094Z,99519.34
2023-02-01T06:00:53.161Z,99518.62
2023-02-01T06:03:23.033Z,99520.52
2023-02-01T06:05:52.257Z,99527.13
2023-02-01T06:08:21.275Z,99523.82
2023-02-01T06:10:50.563Z,99524.48
2023-02-01T06:13:19.369Z,99524.26
2023-02-01T06:15:48.591Z,99524.29
2023-02-01T06:18:17.701Z,99525.94
2023-02-01T06:20:46.434Z,99528.52
2023-02-01T06:23:15.590Z,99528.00
2023-02-01T06:25:44.615Z,99531.14
2023-02-01T06:28:13.983Z,99532.06
2023-02-01T06:30:47.328Z,99530.71
2023-02-01T06:33:16.922Z,99532.77
2023-02-01T06:35:46.496Z,99530.31
2023-02-01T06:38:16.038Z,99533.52
2023-02-01T06:40:45.164Z,99530.42
2023-02-01T06:43:14.093Z,99536.98
2023-02-01T06:45:43.675Z,99542.58
2023-02-01T06:48:13.201Z,99540.40
2023-02-01T06:50:41.824Z,99541.48
2023-02-01T06:53:11.259Z,99542.85
2023-02-01T06:55:39.887Z,99541.02
2023-02-01T06:58:08.610Z,99539.95
2023-02-01T07:00:37.611Z,99540.73
2023-02-01T07:03:06.452Z,99538.96
2023-02-01T07:05:35.446Z,99543.30
2023-02-01T07:08:04.652Z,99541.39
2023-02-01T07:10:35.333Z,99539.76
2023-02-01T07:13:05.141Z,99537.10
2023-02-01T07:15:34.129Z,99539.34
2023-02-01T07:18:03.901Z,99538.92
2023-02-01T07:20:33.316Z,99536.13
2023-02-01T07:23:02.374Z,99529.84
2023-02-01T07:25:31.893Z,99527.95
2023-02-01T07:28:01.076Z,99532.89
2023-02-01T07:30:30.040Z,99536.45
2023-02-01T07:33:02.347Z,99530.08
2023-02-01T07:35:31.884Z,99526.44
2023-02-01T07:38:01.035Z,99518.53
2023-02-01T07:40:31.983Z,99521.49
2023-02-01T07:43:01.352Z,99520.31
2023-02-01T07:45:30.924Z,99518.64
2023-02-01T07:48:00.021Z,99523.61
2023-02-01T07:50:29.763Z,99524.41
2023-02-01T07:53:02.217Z,99515.23
2023-02-01T07:55:31.314Z,99515.79
2023-02-01T07:58:00.233Z,99513.88
2023-02-01T08:00:48.486Z,99507.08
2023-02-01T08:03:17.448Z,99509.79
2023-02-01T08:05:46.838Z,99515.17
2023-02-01T08:08:15.757Z,99511.63
2023-02-01T08:10:44.921Z,99514.14
2023-02-01T08:13:14.147Z,99514.80
2023-02-01T08:15:43.189Z,99517.91
2023-02-01T08:18:12.375Z,99515.34
2023-02-01T08:20:43.893Z,99512.89
2023-02-01T08:23:14.286Z,99513.83
2023-02-01T08:25:44.510Z,99507.70
2023-02-01T08:28:14.285Z,99512.22
2023-02-01T08:30:46.674Z,99509.23
2023-02-01T08:33:16.032Z,99504.39
2023-02-01T08:35:45.405Z,99508.23
2023-02-01T08:38:14.808Z,99507.54
2023-02-01T08:40:44.300Z,99506.69
2023-02-01T08:43:14.450Z,99506.45
2023-02-01T08:45:43.541Z,99500.02
2023-02-01T08:48:12.835Z,99499.61
2023-02-01T08:50:42.288Z,99502.64
2023-02-01T08:53:11.024Z,99506.55
2023-02-01T08:55:39.878Z,99510.33
2023-02-01T08:58:08.724Z,99511.21
2023-02-01T09:00:37.479Z,99513.34
2023-02-01T09:03:06.549Z,99515.58
2023-02-01T09:05:48.767Z,99514.98
2023-02-01T09:08:20.262Z,99514.31
2023-02-01T09:10:49.998Z,99511.26
2023-02-01T09:13:19.371Z,99512.63
2023-02-01T09:15:48.748Z,99511.39
2023-02-01T09:18:20.553Z,99511.94
2023-02-01T09:20:53.371Z,99513.89
2023-02-01T09:23:24.140Z,99505.12
2023-02-01T09:25:54.155Z,99507.52
2023-02-01T09:28:23.638Z,99514.30
2023-02-01T09:30:58.408Z,99515.52
2023-02-01T09:33:29.482Z,99514.44
2023-02-01T09:36:05.514Z,99511.62
2023-02-01T09:38:38.831Z,99507.64
2023-02-01T09:41:53.990Z,99510.89
2023-02-01T09:44:42.436Z,99518.84
2023-02-01T09:47:18.832Z,99519.27
2023-02-01T09:50:06.138Z,99513.80
2023-02-01T09:52:57.626Z,99519.94
2023-02-01T09:55:52.064Z,99520.48
2023-02-01T09:58:30.700Z,99518.23
2023-02-01T10:01:04.151Z,99512.50
2023-02-01T10:03:38.079Z,99508.17
2023-02-01T10:06:46.936Z,99503.44
2023-02-01T10:09:47.514Z,99499.17
2023-02-01T10:12:42.091Z,99503.35
2023-02-01T10:15:39.109Z,99497.05
2023-02-01T10:18:32.785Z,99488.52
2023-02-01T10:21:16.887Z,99488.59
2023-02-01T10:24:16.840Z,99488.92
2023-02-01T10:27:04.216Z,99487.27
2023-02-01T10:29:41.945Z,99486.41
2023-02-01T10:32:25.010Z,99483.95
2023-02-01T10:35:01.113Z,99477.14
2023-02-01T10:37:36.056Z,99471.52
2023-02-01T10:40:27.675Z,99464.75
2023-02-01T10:43:04.297Z,99460.27
2023-02-01T10:45:35.402Z,99461.86
2023-02-01T10:48:05.678Z,99458.02
2023-02-01T10:50:45.796Z,99457.42
2023-02-01T10:53:23.974Z,99447.20
2023-02-01T10:55:55.040Z,99442.62
2023-02-01T10:58:34.104Z,99433.12
2023-02-01T11:01:07.801Z,99425.15
2023-02-01T11:03:46.785Z,99422.08
2023-02-01T11:06:30.015Z,99425.49
2023-02-01T11:09:11.244Z,99421.72
2023-02-01T11:11:49.924Z,99415.25
2023-02-01T11:14:26.915Z,99411.98
2023-02-01T11:17:01.574Z,99414.61
2023-02-01T11:19:32.993Z,99410.26
2023-02-01T11:22:03.373Z,99408.41
2023-02-01T11:24:39.902Z,99405.04
2023-02-01T11:27:27.289Z,99398.45
2023-02-01T11:30:06.000Z,99392.43
2023-02-01T11:32:35.948Z,99391.75
2023-02-01T11:35:07.980Z,99391.20
2023-02-01T11:37:45.348Z,99384.33
2023-02-01T11:40:18.305Z,99375.96
2023-02-01T11:43:02.930Z,99379.23
2023-02-01T11:45:39.083Z,99374.54
2023-02-01T11:48:21.515Z,99369.90
2023-02-01T11:50:57.680Z,99369.91
2023-02-01T11:53:49.519Z,99363.79
2023-02-01T11:56:27.123Z,99353.67
2023-02-01T11:59:14.343Z,99349.90
2023-02-01T12:01:56.588Z,99344.54
2023-02-01T12:04:44.054Z,99343.52
2023-02-01T12:07:25.982Z,99339.83
2023-02-01T12:10:26.051Z,99341.73
2023-02-01T12:13:16.588Z,99338.67
2023-02-01T12:15:52.265Z,99329.21
2023-02-01T12:18:44.718Z,99327.23
2023-02-01T12:21:44.343Z,99322.73
2023-02-01T12:24:56.993Z,99322.02
2023-02-01T12:28:00.820Z,99325.27
2023-02-01T12:30:48.868Z,99327.13
2023-02-01T12:33:30.277Z,99323.60
2023-02-01T12:36:15.657Z,99308.27
2023-02-01T12:38:48.267Z,99298.79
2023-02-01T12:41:24.040Z,99298.83
2023-02-01T12:44:03.088Z,99299.35
2023-02-01T12:46:42.217Z,99293.41
2023-02-01T12:49:30.589Z,99282.55
2023-02-01T12:52:08.708Z,99281.70
2023-02-01T12:54:37.944Z,99275.49
2023-02-01T12:57:15.175Z,99273.90
2023-02-01T12:59:55.144Z,99274.75
2023-02-01T13:02:31.273Z,99270.69
2023-02-01T13:05:22.424Z,99270.52
2023-02-01T13:07:59.892Z,99267.75
2023-02-01T13:10:37.646Z,99268.52
2023-02-01T13:13:19.069Z,99254.11
2023-02-01T13:15:57.823Z,99245.93
2023-02-01T13:18:35.130Z,99245.17
2023-02-01T13:21:12.475Z,99241.73
2023-02-01T13:23:45.246Z,99243.73
2023-02-01T13:26:14.644Z,99246.36
2023-02-01T13:28:58.008Z,99259.68
2023-02-01T13:32:05.605Z,99261.48
2023-02-01T13:34:51.046Z,99257.73
2023-02-01T13:37:33.879Z,99257.39
2023-02-01T13:40:41.607Z,99257.48
2023-02-01T13:43:30.568Z,99259.84
2023-02-01T13:46:07.431Z,99247.41
2023-02-01T13:48:42.207Z,99247.20
2023-02-01T13:51:11.433Z,99254.23
2023-02-01T13:53:48.243Z,99261.91
2023-02-01T13:56:20.626Z,99263.66
2023-02-01T13:58:52.909Z,99270.61
2023-02-01T14:01:25.046Z,99270.07
2023-02-01T14:04:02.649Z,99272.64
2023-02-01T14:06:32.897Z,99264.41
2023-02-01T14:09:14.484Z,99266.27
2023-02-01T14:11:50.039Z,99260.70
2023-02-01T14:14:19.174Z,99260.85
2023-02-01T14:16:55.123Z,99265.94
2023-02-01T14:19:28.634Z,99272.62
2023-02-01T14:22:06.055Z,99274.56
2023-02-01T14:24:38.292Z,99269.47
2023-02-01T14:27:23.552Z,99277.06
2023-02-01T14:29:59.514Z,99275.13
2023-02-01T14:32:48.448Z,99270.28
2023-02-01T14:35:27.868Z,99268.05
2023-02-01T14:38:04.360Z,99264.27
2023-02-01T14:40:35.771Z,99263.37
2023-02-01T14:43:06.185Z,99261.86
2023-02-01T14:45:35.298Z,99269.06
2023-02-01T14:48:07.499Z,99275.70
2023-02-01T14:50:44.536Z,99268.25
2023-02-01T14:53:14.496Z,99273.27
2023-02-01T14:56:10.491Z,99279.19
2023-02-01T14:58:53.938Z,99272.63
2023-02-01T15:01:39.044Z,99273.88
2023-02-01T15:04:19.823Z,99285.69
2023-02-01T15:06:55.550Z,99294.00
2023-02-01T15:09:42.121Z,99295.94
2023-02-01T15:12:15.000Z,99287.81
2023-02-01T15:14:51.012Z,99287.05
2023-02-01T15:17:21.809Z,99287.61
2023-02-01T15:19:59.937Z,99285.75
2023-02-01T15:22:32.403Z,99280.69
2023-02-01T15:25:03.992Z,99277.33
2023-02-01T15:27:35.357Z,99276.73
2023-02-01T15:30:33.117Z,99280.73
2023-02-01T15:33:10.245Z,99276.73
2023-02-01T15:35:46.123Z,99278.98
2023-02-01T15:38:22.131Z,99278.42
2023-02-01T15:41:04.471Z,99285.07
2023-02-01T15:44:04.196Z,99285.83
2023-02-01T15:46:37.929Z,99292.98
2023-02-01T15:49:20.409Z,99297.09
2023-02-01T15:51:50.426Z,99302.89
2023-02-01T15:54:27.272Z,99313.70
2023-02-01T15:56:59.476Z,99329.13
2023-02-01T15:59:39.544Z,99333.58
2023-02-01T16:02:49.963Z,99334.09
2023-02-01T16:05:34.068Z,99330.28
2023-02-01T16:08:15.764Z,99342.39
2023-02-01T16:10:48.546Z,99343.32
2023-02-01T16:13:19.955Z,99346.70
2023-02-01T16:15:50.107Z,99354.37
2023-02-01T16:18:19.402Z,99356.72
2023-02-01T16:20:50.057Z,99355.59
2023-02-01T16:23:21.405Z,99355.83
2023-02-01T16:25:50.690Z,99359.34
2023-02-01T16:28:20.293Z,99359.19
2023-02-01T16:30:51.212Z,99361.17
2023-02-01T16:33:23.512Z,99360.98
2023-02-01T16:35:53.909Z,99359.34
2023-02-01T16:38:24.655Z,99356.88
2023-02-01T16:40:54.607Z,99355.30
2023-02-01T16:43:26.036Z,99352.80
2023-02-01T16:46:00.644Z,99349.45
2023-02-01T16:48:37.115Z,99350.10
2023-02-01T16:51:15.551Z,99351.40
2023-02-01T16:53:54.274Z,99345.42
2023-02-01T16:56:30.463Z,99345.41
2023-02-01T16:59:00.762Z,99352.46
2023-02-01T17:01:29.881Z,99354.17
2023-02-01T17:03:59.694Z,99356.80
2023-02-01T17:06:30.677Z,99359.41
2023-02-01T17:09:01.472Z,99356.83
2023-02-01T17:11:32.584Z,99359.38
2023-02-01T17:14:23.373Z,99358.33
2023-02-01T17:16:53.937Z,99360.98
2023-02-01T17:19:25.753Z,99361.93
2023-02-01T17:22:00.318Z,99361.33
2023-02-01T17:24:46.816Z,99367.83
2023-02-01T17:27:19.229Z,99370.27
2023-02-01T17:29:49.817Z,99371.02
2023-02-01T17:32:25.563Z,99375.29
2023-02-01T17:34:54.954Z,99376.70
2023-02-01T17:37:29.954Z,99378.52
2023-02-01T17:39:59.527Z,99378.67
2023-02-01T17:42:30.423Z,99378.90
2023-02-01T17:45:37.144Z,99380.65
2023-02-01T17:48:07.798Z,99381.85
2023-02-01T17:50:39.427Z,99380.55
2023-02-01T17:53:10.803Z,99387.83
2023-02-01T17:55:46.800Z,99391.20
2023-02-01T17:58:17.432Z,99390.05
2023-02-01T18:00:49.876Z,99389.70
2023-02-01T18:03:27.167Z,99390.34
2023-02-01T18:05:59.479Z,99388.81
2023-02-01T18:08:33.869Z,99389.58
2023-02-01T18:11:03.961Z,99389.00
2023-02-01T18:13:34.052Z,99386.21
2023-02-01T18:16:05.466Z,99392.58
2023-02-01T18:18:38.143Z,99391.39
2023-02-01T18:21:09.848Z,99390.81
2023-02-01T18:23:39.297Z,99387.11
2023-02-01T18:26:13.038Z,99382.60
2023-02-01T18:28:43.153Z,99380.34
2023-02-01T18:31:24.459Z,99370.95
2023-02-01T18:33:57.652Z,99364.39
2023-02-01T18:36:28.490Z,99359.70
2023-02-01T18:38:58.552Z,99361.44
2023-02-01T18:41:29.151Z,99359.59
2023-02-01T18:43:59.313Z,99357.29
2023-02-01T18:46:29.921Z,99357.28
2023-02-01T18:48:59.182Z,99368.21
2023-02-01T18:51:28.522Z,99370.23
2023-02-01T18:53:57.815Z,99367.65
2023-02-01T18:56:27.119Z,99372.63
2023-02-01T18:58:59.255Z,99371.70
2023-02-01T19:01:29.276Z,99368.86
2023-02-01T19:04:01.038Z,99371.55
2023-02-01T19:06:34.051Z,99370.03
2023-02-01T19:09:03.672Z,99372.55
2023-02-01T19:11:32.860Z,99375.45
2023-02-01T19:14:02.856Z,99376.89
2023-02-01T19:16:32.248Z,99376.13
2023-02-01T19:19:01.958Z,99377.11
2023-02-01T19:21:31.879Z,99371.61
2023-02-01T19:24:05.661Z,99374.94
2023-02-01T19:26:36.014Z,99372.70
2023-02-01T19:29:06.421Z,99370.70
2023-02-01T19:31:37.891Z,99368.15
2023-02-01T19:34:07.990Z,99373.21
2023-02-01T19:36:42.580Z,99379.62
2023-02-01T19:39:12.682Z,99372.52
2023-02-01T19:41:42.411Z,99375.88
2023-02-01T19:44:12.518Z,99380.80
2023-02-01T19:46:42.572Z,99387.11
2023-02-01T19:49:12.680Z,99380.71
2023-02-01T19:51:45.315Z,99381.30
2023-02-01T19:54:17.221Z,99381.94
2023-02-01T19:56:51.952Z,99382.18
2023-02-01T19:59:24.001Z,99385.79
2023-02-01T20:01:54.864Z,99388.50
2023-02-01T20:04:27.533Z,99386.20
2023-02-01T20:06:58.164Z,99380.35
2023-02-01T20:09:30.230Z,99381.79
2023-02-01T20:12:01.312Z,99381.39
2023-02-01T20:14:32.696Z,99381.60
2023-02-01T20:17:03.999Z,99382.30
2023-02-01T20:19:36.000Z,99381.85
2023-02-01T20:22:06.774Z,99382.88
2023-02-01T20:24:39.806Z,99387.10
2023-02-01T20:27:13.220Z,99387.41
2023-02-01T20:29:43.365Z,99391.73
2023-02-01T20:32:13.827Z,99390.86
2023-02-01T20:34:43.759Z,99390.74
2023-02-01T20:37:14.370Z,99381.96
2023-02-01T20:39:46.401Z,99386.64
2023-02-01T20:42:18.597Z,99390.89
2023-02-01T20:44:49.684Z,99397.33
2023-02-01T20:47:21.520Z,99394.42
2023-02-01T20:49:51.443Z,99401.68
2023-02-01T20:52:22.004Z,99398.95
2023-02-01T20:54:53.164Z,99400.45
2023-02-01T20:57:23.823Z,99400.30
2023-02-01T20:59:55.040Z,99398.87
2023-02-01T21:02:25.928Z,99398.29
2023-02-01T21:04:57.163Z,99397.73
2023-02-01T21:07:28.270Z,99394.26
2023-02-01T21:10:00.333Z,99398.30
2023-02-01T21:12:31.683Z,99398.04
2023-02-01T21:15:01.108Z,99400.12
2023-02-01T21:17:34.024Z,99400.95
2023-02-01T21:20:05.795Z,99406.39
2023-02-01T21:22:36.879Z,99407.68
2023-02-01T21:25:07.620Z,99413.58
2023-02-01T21:27:38.901Z,99405.48
2023-02-01T21:30:10.853Z,99408.99
2023-02-01T21:32:41.931Z,99409.45
2023-02-01T21:35:12.555Z,99410.09
2023-02-01T21:37:43.256Z,99406.11
2023-02-01T21:40:14.275Z,99405.80
2023-02-01T21:42:46.265Z,99405.36
2023-02-01T21:45:17.601Z,99403.73
2023-02-01T21:47:49.614Z,99398.73
2023-02-01T21:50:22.725Z,99397.75
2023-02-01T21:52:52.641Z,99396.89
2023-02-01T21:55:23.693Z,99400.11
2023-02-01T21:57:53.645Z,99395.25
2023-02-01T22:00:24.571Z,99397.60
2023-02-01T22:02:53.965Z,99399.21
2023-02-01T22:05:23.266Z,99396.75
2023-02-01T22:07:52.604Z,99400.45
2023-02-01T22:10:23.786Z,99401.63
2023-02-01T22:12:53.601Z,99397.94
2023-02-01T22:15:23.249Z,99401.52
2023-02-01T22:17:52.879Z,99400.93
2023-02-01T22:20:23.573Z,99400.23
2023-02-01T22:22:53.459Z,99399.30
2023-02-01T22:25:30.103Z,99399.71
2023-02-01T22:28:31.745Z,99403.07
2023-02-01T22:30:51.563Z,99400.77
2023-02-01T22:33:24.268Z,99400.77
2023-02-01T22:35:56.127Z,99408.20
2023-02-01T22:38:28.264Z,99415.65
2023-02-01T22:41:00.183Z,99419.53
2023-02-01T22:43:30.594Z,99420.18
2023-02-01T22:46:02.820Z,99412.87
2023-02-01T22:48:37.775Z,99408.30
2023-02-01T22:51:10.482Z,99408.54
2023-02-01T22:53:40.896Z,99411.13
2023-02-01T22:56:13.803Z,99414.54
2023-02-01T22:58:44.852Z,99417.21
2023-02-01T23:01:19.177Z,99413.15
2023-02-01T23:03:50.091Z,99407.22
2023-02-01T23:06:20.289Z,99403.55
2023-02-01T23:08:50.237Z,99405.98
2023-02-01T23:11:19.329Z,99408.61
2023-02-01T23:13:48.642Z,99416.02
2023-02-01T23:16:18.589Z,99416.91
2023-02-01T23:18:49.164Z,99416.30
2023-02-01T23:21:20.402Z,99420.96
2023-02-01T23:23:52.666Z,99422.83
2023-02-01T23:26:23.754Z,99416.52
2023-02-01T23:28:57.600Z,99416.59
2023-02-01T23:31:34.571Z,99415.39
2023-02-01T23:34:05.668Z,99411.83
2023-02-01T23:36:38.574Z,99412.58
2023-02-01T23:39:08.766Z,99406.67
2023-02-01T23:41:41.225Z,99404.73
2023-02-01T23:44:10.337Z,99402.64
2023-02-01T23:46:59.339Z,99398.23
2023-02-01T23:49:28.395Z,99395.88
2023-02-01T23:51:58.099Z,99392.38
2023-02-01T23:54:27.543Z,99390.18
2023-02-01T23:56:57.722Z,99385.67
2023-02-01T23:59:27.424Z,99385.60
